Time;durP1;ratioP1;P1;durP2;ratioP2;P2;SDS_P1;SDS_P2;PMS_P1;PMS_P2;Temp;Humidity;BMP_temperature;BMP_pressure;BME280_temperature;BME280_humidity;BME280_pressure;Samples;Min_cycle;Max_cycle;Signal;HPM_P1;HPM_P2
2023/05/19 00:01:36;;;;;;;13.73;11.40;;;22.90;81.00;;;;;;6260492;27;88258;-66
2023/05/19 00:04:40;;;;;;;13.07;11.68;;;22.90;81.00;;;;;;6264842;27;89781;-66
2023/05/19 00:07:45;;;;;;;14.00;11.10;;;22.90;80.90;;;;;;6258874;27;88310;-66
2023/05/19 00:10:48;;;;;;;13.85;11.38;;;22.90;80.80;;;;;;6257652;27;90391;-66
2023/05/19 00:13:51;;;;;;;14.77;12.15;;;22.90;80.80;;;;;;6266057;27;89103;-66
2023/05/19 00:16:54;;;;;;;14.80;12.10;;;22.90;80.80;;;;;;6272899;27;89083;-65
2023/05/19 00:19:58;;;;;;;12.98;11.52;;;22.90;80.80;;;;;;6256887;27;90332;-66
2023/05/19 00:23:00;;;;;;;14.88;11.70;;;22.90;80.80;;;;;;6262222;27;89249;-65
2023/05/19 00:26:01;;;;;;;14.38;12.20;;;22.80;80.80;;;;;;6265152;27;89033;-66
2023/05/19 00:29:03;;;;;;;13.75;11.50;;;22.80;80.80;;;;;;6259302;27;89122;-65
2023/05/19 00:32:06;;;;;;;14.07;11.43;;;22.80;80.90;;;;;;6264441;27;90067;-65
2023/05/19 00:35:10;;;;;;;12.55;11.20;;;22.80;81.00;;;;;;6273891;27;89244;-66
2023/05/19 00:38:12;;;;;;;13.23;11.50;;;22.80;80.80;;;;;;6276102;27;89616;-65
2023/05/19 00:41:14;;;;;;;13.40;11.35;;;22.80;80.90;;;;;;6267570;27;90076;-66
2023/05/19 00:44:16;;;;;;;12.40;10.60;;;22.80;80.80;;;;;;6274502;27;89070;-66
2023/05/19 00:47:18;;;;;;;12.73;9.70;;;22.80;80.70;;;;;;6277189;27;89158;-66
2023/05/19 00:50:22;;;;;;;12.27;10.25;;;22.80;80.20;;;;;;6262346;27;89013;-66
2023/05/19 00:53:25;;;;;;;13.15;10.48;;;22.80;80.30;;;;;;6266547;27;88932;-66
2023/05/19 00:56:27;;;;;;;11.15;9.95;;;22.80;80.40;;;;;;6261916;27;88979;-66
2023/05/19 00:59:29;;;;;;;13.60;10.57;;;22.80;80.40;;;;;;6269791;27;89187;-66
2023/05/19 01:02:31;;;;;;;11.65;10.27;;;22.70;80.40;;;;;;6274663;27;88332;-66
2023/05/19 01:05:35;;;;;;;12.23;10.20;;;22.80;80.50;;;;;;6268576;27;89045;-66
2023/05/19 01:08:38;;;;;;;11.85;9.32;;;22.70;80.50;;;;;;6271499;27;90796;-65
2023/05/19 01:11:40;;;;;;;10.60;9.48;;;22.80;80.60;;;;;;6265650;27;88891;-65
2023/05/19 01:14:43;;;;;;;13.18;10.60;;;22.80;80.60;;;;;;6272715;27;89115;-67
2023/05/19 01:17:50;;;;;;;12.27;9.63;;;22.80;80.50;;;;;;6267823;27;89093;-65
2023/05/19 01:21:02;;;;;;;11.90;9.35;;;22.80;80.50;;;;;;6277371;27;87991;-66
2023/05/19 01:24:21;;;;;;;12.25;10.15;;;22.70;80.40;;;;;;6272207;27;89098;-66
2023/05/19 01:27:54;;;;;;;12.10;9.52;;;22.70;80.50;;;;;;6273314;27;89117;-67
2023/05/19 01:30:59;;;;;;;12.07;9.35;;;22.70;80.50;;;;;;6231382;27;89159;-66
2023/05/19 01:34:03;;;;;;;11.07;9.38;;;22.70;80.50;;;;;;6272400;27;88436;-66
2023/05/19 01:37:06;;;;;;;12.15;9.63;;;22.70;80.50;;;;;;6270494;27;89087;-66
2023/05/19 01:40:10;;;;;;;10.05;9.00;;;22.70;80.50;;;;;;6271566;27;88932;-66
2023/05/19 01:43:15;;;;;;;11.48;9.00;;;22.70;80.50;;;;;;6268151;27;89808;-66
2023/05/19 01:46:19;;;;;;;10.27;9.10;;;22.70;80.50;;;;;;6269376;27;89000;-67
2023/05/19 01:49:21;;;;;;;10.57;9.23;;;22.70;80.40;;;;;;6268353;27;89488;-66
2023/05/19 01:52:23;;;;;;;9.80;8.80;;;22.70;80.30;;;;;;6277390;27;88978;-66
2023/05/19 01:55:25;;;;;;;10.52;9.23;;;22.70;80.30;;;;;;6268423;27;87974;-67
2023/05/19 01:58:37;;;;;;;10.82;8.93;;;22.70;80.30;;;;;;6259802;27;89136;-67
2023/05/19 02:01:49;;;;;;;10.07;8.65;;;22.70;80.20;;;;;;6265379;27;89024;-66
2023/05/19 02:04:57;;;;;;;11.75;8.65;;;22.70;80.10;;;;;;6259561;27;88126;-66
2023/05/19 02:08:06;;;;;;;10.40;8.60;;;22.70;80.00;;;;;;6272902;27;88601;-66
2023/05/19 02:11:14;;;;;;;9.35;7.85;;;22.70;80.00;;;;;;6262814;27;87889;-67
2023/05/19 02:14:20;;;;;;;9.70;8.57;;;22.70;80.00;;;;;;6267901;27;90020;-67
2023/05/19 02:17:26;;;;;;;10.27;8.32;;;22.60;79.90;;;;;;6272950;27;89481;-66
2023/05/19 02:20:28;;;;;;;9.73;8.13;;;22.70;79.90;;;;;;6265248;27;89553;-66
2023/05/19 02:23:31;;;;;;;8.85;7.60;;;22.60;80.00;;;;;;6269614;27;88278;-65
2023/05/19 02:26:33;;;;;;;9.27;8.10;;;22.60;79.80;;;;;;6265153;27;89890;-66
2023/05/19 02:29:35;;;;;;;10.68;8.07;;;22.60;79.80;;;;;;6269186;27;89491;-66
2023/05/19 02:32:38;;;;;;;8.57;7.20;;;22.60;79.70;;;;;;6257796;27;89201;-66
2023/05/19 02:35:40;;;;;;;8.57;7.40;;;22.60;79.60;;;;;;6263274;27;88341;-66
2023/05/19 02:38:42;;;;;;;10.15;7.60;;;22.60;79.60;;;;;;6266614;27;89379;-66
2023/05/19 02:41:44;;;;;;;10.23;6.90;;;22.60;79.50;;;;;;6269499;27;89813;-66
2023/05/19 02:44:46;;;;;;;10.13;7.20;;;22.60;79.40;;;;;;6270627;27;90031;-66
2023/05/19 02:47:50;;;;;;;8.15;7.22;;;22.60;79.40;;;;;;6266983;27;90080;-67
2023/05/19 02:50:51;;;;;;;9.55;7.05;;;22.60;79.30;;;;;;6274805;27;89079;-66
2023/05/19 02:53:53;;;;;;;9.18;6.85;;;22.60;79.30;;;;;;6257497;27;89007;-66
2023/05/19 02:56:55;;;;;;;7.57;6.78;;;22.60;79.40;;;;;;6263009;27;89019;-66
2023/05/19 02:59:57;;;;;;;7.93;6.80;;;22.60;79.30;;;;;;6262380;27;89116;-65
2023/05/19 03:03:03;;;;;;;8.68;6.60;;;22.60;79.30;;;;;;6268346;27;88951;-66
2023/05/19 03:06:07;;;;;;;10.75;6.95;;;22.60;79.30;;;;;;6258969;27;88404;-66
2023/05/19 03:09:09;;;;;;;6.97;6.13;;;22.60;79.20;;;;;;6266887;27;89414;-66
2023/05/19 03:12:11;;;;;;;8.15;6.47;;;22.50;79.00;;;;;;6265753;27;89095;-66
2023/05/19 03:15:13;;;;;;;7.47;6.20;;;22.60;79.10;;;;;;6265919;27;90090;-66
2023/05/19 03:18:17;;;;;;;7.70;6.63;;;22.50;78.90;;;;;;6269448;27;89096;-66
2023/05/19 03:21:19;;;;;;;6.40;5.65;;;22.50;78.90;;;;;;6260051;27;89396;-66
2023/05/19 03:24:21;;;;;;;7.88;6.15;;;22.50;79.10;;;;;;6271879;27;89618;-66
2023/05/19 03:27:22;;;;;;;8.00;6.15;;;22.50;79.10;;;;;;6264315;27;89603;-66
2023/05/19 03:30:24;;;;;;;9.00;6.57;;;22.50;79.10;;;;;;6261326;27;89100;-66
2023/05/19 03:33:28;;;;;;;8.82;7.05;;;22.50;79.10;;;;;;6261446;27;89185;-66
2023/05/19 03:36:31;;;;;;;7.15;6.13;;;22.50;79.20;;;;;;6275260;27;88594;-66
2023/05/19 03:39:33;;;;;;;8.93;5.45;;;22.50;79.30;;;;;;6258776;27;89027;-65
2023/05/19 03:42:35;;;;;;;8.30;5.88;;;22.50;79.30;;;;;;6255368;27;89006;-65
2023/05/19 03:45:37;;;;;;;8.57;6.28;;;22.50;79.30;;;;;;6272957;27;90030;-66
2023/05/19 03:48:41;;;;;;;6.93;5.80;;;22.50;79.20;;;;;;6269005;27;89136;-66
2023/05/19 03:51:43;;;;;;;9.15;5.88;;;22.50;79.20;;;;;;6255427;27;88592;-65
2023/05/19 03:54:45;;;;;;;10.00;6.07;;;22.50;79.20;;;;;;6254943;27;89191;-65
2023/05/19 03:57:47;;;;;;;6.45;5.75;;;22.50;79.30;;;;;;6255058;27;89023;-66
2023/05/19 04:00:49;;;;;;;7.32;5.32;;;22.50;79.40;;;;;;6264661;27;88879;-65
2023/05/19 04:03:53;;;;;;;7.95;5.55;;;22.50;78.80;;;;;;6263483;27;89622;-66
2023/05/19 04:06:55;;;;;;;7.75;5.47;;;22.50;78.90;;;;;;6264333;27;88376;-66
2023/05/19 04:09:57;;;;;;;8.63;5.50;;;22.50;78.80;;;;;;6267545;27;90175;-65
2023/05/19 04:12:59;;;;;;;7.35;5.68;;;22.50;78.80;;;;;;6261610;27;89258;-66
2023/05/19 04:16:01;;;;;;;7.25;5.20;;;22.50;78.80;;;;;;6261665;27;90360;-66
2023/05/19 04:19:05;;;;;;;6.72;5.22;;;22.50;79.50;;;;;;6267932;27;89451;-65
2023/05/19 04:22:07;;;;;;;7.65;5.38;;;22.60;78.60;;;;;;6263903;27;89418;-65
2023/05/19 04:25:09;;;;;;;6.70;5.07;;;22.60;78.60;;;;;;6271177;27;87966;-65
2023/05/19 04:28:11;;;;;;;8.40;5.40;;;22.60;78.60;;;;;;6268440;27;88047;-66
2023/05/19 04:31:13;;;;;;;6.50;5.13;;;22.60;78.80;;;;;;6271365;27;89202;-66
2023/05/19 04:34:18;;;;;;;8.63;5.80;;;22.60;78.90;;;;;;6266677;27;89049;-65
2023/05/19 04:37:20;;;;;;;6.00;5.20;;;22.60;79.10;;;;;;6279323;27;88348;-66
2023/05/19 04:40:23;;;;;;;8.90;5.55;;;22.60;79.30;;;;;;6266222;27;89047;-65
2023/05/19 04:43:26;;;;;;;9.90;5.65;;;22.60;79.40;;;;;;6259114;27;89160;-66
2023/05/19 04:46:29;;;;;;;7.35;5.82;;;22.60;79.60;;;;;;6263956;27;90403;-66
2023/05/19 04:49:32;;;;;;;11.07;5.90;;;22.60;79.80;;;;;;6270558;27;89582;-66
2023/05/19 04:52:35;;;;;;;8.43;6.25;;;22.70;79.80;;;;;;6266391;27;89076;-66
2023/05/19 04:55:37;;;;;;;8.60;5.93;;;22.70;80.00;;;;;;6276839;27;89320;-66
2023/05/19 04:58:40;;;;;;;8.35;5.68;;;22.70;80.30;;;;;;6273515;27;88834;-66
2023/05/19 05:01:42;;;;;;;7.00;5.80;;;22.70;80.80;;;;;;6263536;27;88880;-66
2023/05/19 05:04:45;;;;;;;9.68;6.25;;;22.70;80.80;;;;;;6265731;27;89121;-69
2023/05/19 05:07:48;;;;;;;9.30;5.70;;;22.70;80.70;;;;;;6265648;27;88328;-67
2023/05/19 05:10:51;;;;;;;11.63;5.65;;;22.70;80.90;;;;;;6264190;27;89610;-66
2023/05/19 05:13:56;;;;;;;8.05;6.05;;;22.80;81.00;;;;;;6261812;27;89010;-64
2023/05/19 05:16:59;;;;;;;7.32;5.80;;;22.80;81.60;;;;;;6273606;27;90329;-65
2023/05/19 05:20:04;;;;;;;8.05;6.15;;;22.80;81.50;;;;;;6267518;27;88953;-65
2023/05/19 05:23:08;;;;;;;11.77;6.63;;;22.80;82.40;;;;;;6266933;27;89327;-65
2023/05/19 05:26:17;;;;;;;10.25;6.72;;;22.80;82.80;;;;;;6265697;27;87952;-64
2023/05/19 05:29:20;;;;;;;11.77;6.97;;;22.90;83.70;;;;;;6277079;27;89129;-64
2023/05/19 05:32:22;;;;;;;8.77;6.20;;;22.90;83.50;;;;;;6262765;27;89509;-64
2023/05/19 05:35:26;;;;;;;11.20;6.15;;;23.00;82.70;;;;;;6266800;27;88436;-64
2023/05/19 05:38:28;;;;;;;8.15;5.95;;;23.00;82.20;;;;;;6271954;27;88789;-64
2023/05/19 05:41:33;;;;;;;9.27;6.93;;;23.00;82.50;;;;;;6258636;27;88758;-64
2023/05/19 05:44:36;;;;;;;8.65;7.10;;;23.00;83.50;;;;;;6266619;27;89119;-64
2023/05/19 05:47:40;;;;;;;9.30;7.20;;;23.00;83.90;;;;;;6265299;27;88868;-64
2023/05/19 05:50:44;;;;;;;9.00;7.13;;;23.10;84.50;;;;;;6265434;27;91152;-64
2023/05/19 05:53:52;;;;;;;8.68;7.00;;;23.10;84.90;;;;;;6275608;27;89019;-64
2023/05/19 05:56:54;;;;;;;8.98;7.10;;;23.10;85.30;;;;;;6271512;27;89181;-64
2023/05/19 05:59:56;;;;;;;8.95;7.88;;;23.10;85.90;;;;;;6260131;27;90838;-63
2023/05/19 06:02:58;;;;;;;8.52;7.63;;;23.30;88.90;;;;;;6264349;27;89422;-64
2023/05/19 06:06:02;;;;;;;8.27;7.40;;;23.30;85.90;;;;;;6262407;27;88918;-64
2023/05/19 06:09:04;;;;;;;8.80;7.90;;;23.40;85.70;;;;;;6260907;27;88378;-63
2023/05/19 06:12:06;;;;;;;10.60;8.00;;;23.40;85.70;;;;;;6263735;27;89098;-64
2023/05/19 06:15:08;;;;;;;9.70;7.65;;;23.60;87.90;;;;;;6269359;27;89058;-65
2023/05/19 06:18:10;;;;;;;8.55;7.22;;;23.90;85.00;;;;;;6264888;27;89887;-65
2023/05/19 06:21:14;;;;;;;8.77;7.60;;;24.10;83.20;;;;;;6258983;27;90395;-65
2023/05/19 06:24:16;;;;;;;10.82;7.45;;;24.30;82.70;;;;;;6268012;27;89124;-65
2023/05/19 06:27:18;;;;;;;8.63;7.20;;;24.20;82.50;;;;;;6270580;27;89909;-66
2023/05/19 06:30:20;;;;;;;7.53;6.75;;;24.20;82.50;;;;;;6278595;27;88289;-66
2023/05/19 06:33:22;;;;;;;10.00;6.97;;;24.10;81.60;;;;;;6272749;27;89388;-66
2023/05/19 06:36:25;;;;;;;7.35;6.60;;;24.10;81.60;;;;;;6262140;27;89022;-66
2023/05/19 06:39:27;;;;;;;8.20;6.78;;;24.00;81.60;;;;;;6273399;27;88355;-66
2023/05/19 06:42:29;;;;;;;7.35;6.43;;;24.00;81.80;;;;;;6266466;27;89024;-65
2023/05/19 06:45:32;;;;;;;6.90;6.25;;;23.90;81.90;;;;;;6268683;27;89016;-65
2023/05/19 06:48:34;;;;;;;7.10;6.05;;;23.90;82.10;;;;;;6266152;27;90140;-65
2023/05/19 06:51:37;;;;;;;8.50;6.28;;;23.80;82.10;;;;;;6271509;27;90264;-66
2023/05/19 06:54:39;;;;;;;8.02;6.50;;;23.80;82.30;;;;;;6261746;27;89152;-65
2023/05/19 06:57:41;;;;;;;11.30;6.68;;;23.70;82.50;;;;;;6263204;27;89368;-65
2023/05/19 07:00:43;;;;;;;7.93;6.60;;;23.70;82.60;;;;;;6266478;27;89064;-65
2023/05/19 07:03:45;;;;;;;8.18;5.95;;;23.70;82.70;;;;;;6267752;27;89075;-65
2023/05/19 07:06:49;;;;;;;8.02;6.07;;;23.60;82.70;;;;;;6256857;27;89014;-65
2023/05/19 07:09:51;;;;;;;8.38;6.35;;;23.60;82.80;;;;;;6262940;27;88002;-65
2023/05/19 07:12:53;;;;;;;6.70;5.57;;;23.60;82.90;;;;;;6258197;27;89050;-65
2023/05/19 07:15:55;;;;;;;9.30;5.63;;;23.60;82.90;;;;;;6259861;27;89068;-65
2023/05/19 07:18:57;;;;;;;6.65;5.32;;;23.60;83.80;;;;;;6261724;27;90066;-65
2023/05/19 07:22:00;;;;;;;6.65;5.57;;;23.60;83.00;;;;;;6279307;27;88729;-65
2023/05/19 07:25:03;;;;;;;6.53;5.28;;;23.60;83.10;;;;;;6261852;27;89051;-65
2023/05/19 07:28:05;;;;;;;6.30;5.70;;;23.50;83.20;;;;;;6273093;27;89126;-65
2023/05/19 07:31:07;;;;;;;7.25;5.50;;;23.50;83.20;;;;;;6258064;27;89085;-65
2023/05/19 07:34:09;;;;;;;7.20;5.75;;;23.50;83.10;;;;;;6263775;27;89346;-65
2023/05/19 07:37:12;;;;;;;7.35;5.78;;;23.50;83.10;;;;;;6273661;27;89062;-65
2023/05/19 07:40:14;;;;;;;6.22;5.30;;;23.40;83.10;;;;;;6264095;27;88409;-65
2023/05/19 07:43:16;;;;;;;6.82;5.13;;;23.40;83.00;;;;;;6275555;27;89116;-65
2023/05/19 07:46:18;;;;;;;7.03;5.82;;;23.40;83.00;;;;;;6272287;27;89071;-65
2023/05/19 07:49:20;;;;;;;7.78;5.45;;;23.40;82.90;;;;;;6294961;27;90035;-65
2023/05/19 07:52:23;;;;;;;6.68;5.25;;;23.40;82.80;;;;;;6274575;27;89136;-65
2023/05/19 07:55:25;;;;;;;5.97;5.35;;;23.40;82.80;;;;;;6275306;27;88927;-65
2023/05/19 07:58:27;;;;;;;6.45;5.25;;;23.40;82.80;;;;;;6264302;27;89245;-65
2023/05/19 08:01:30;;;;;;;8.35;5.45;;;23.40;82.70;;;;;;6270937;27;89223;-65
2023/05/19 08:04:32;;;;;;;7.28;5.30;;;23.40;82.70;;;;;;6282810;27;90622;-65
2023/05/19 08:07:36;;;;;;;5.40;4.90;;;23.40;82.70;;;;;;6262968;27;89216;-65
2023/05/19 08:10:38;;;;;;;6.65;5.03;;;23.40;82.60;;;;;;6265803;27;88409;-65
2023/05/19 08:13:40;;;;;;;6.28;5.60;;;23.40;82.60;;;;;;6257737;27;89256;-65
2023/05/19 08:16:44;;;;;;;5.60;5.03;;;23.40;82.50;;;;;;6275157;27;89228;-65
2023/05/19 08:19:46;;;;;;;5.80;5.20;;;23.40;82.50;;;;;;6262122;27;88761;-67
2023/05/19 08:22:49;;;;;;;5.68;4.90;;;23.40;82.50;;;;;;6273475;27;88606;-65
2023/05/19 08:25:51;;;;;;;6.30;5.35;;;23.40;82.00;;;;;;6270696;27;89247;-65
2023/05/19 08:28:53;;;;;;;6.68;5.15;;;23.40;81.40;;;;;;6275815;27;89246;-65
2023/05/19 08:31:57;;;;;;;6.43;4.85;;;23.40;81.50;;;;;;6266275;27;89056;-65
2023/05/19 08:34:59;;;;;;;6.35;5.18;;;23.30;81.60;;;;;;6274189;27;90076;-65
2023/05/19 08:38:02;;;;;;;5.40;4.90;;;23.40;82.70;;;;;;6266064;27;89053;-65
2023/05/19 08:41:04;;;;;;;5.85;5.22;;;23.40;81.80;;;;;;6269722;27;88678;-65
2023/05/19 08:44:06;;;;;;;5.38;4.82;;;23.40;81.80;;;;;;6268458;27;89163;-65
2023/05/19 08:47:12;;;;;;;7.95;5.50;;;23.40;81.90;;;;;;6270618;27;89158;-65
2023/05/19 08:50:20;;;;;;;6.45;5.63;;;23.40;82.30;;;;;;6268809;27;90066;-65
2023/05/19 08:53:31;;;;;;;8.00;5.45;;;23.40;82.60;;;;;;6262986;27;89166;-65
2023/05/19 08:56:33;;;;;;;6.95;5.60;;;23.40;82.80;;;;;;6283953;27;89089;-65
2023/05/19 08:59:35;;;;;;;6.38;5.65;;;23.40;82.80;;;;;;6275794;27;88983;-65
2023/05/19 09:02:38;;;;;;;7.07;5.55;;;23.40;82.80;;;;;;6266156;27;89037;-65
2023/05/19 09:05:40;;;;;;;6.30;5.68;;;23.40;82.80;;;;;;6262795;27;88977;-65
2023/05/19 09:08:45;;;;;;;6.25;5.35;;;23.40;82.80;;;;;;6270681;27;88051;-64
2023/05/19 09:11:47;;;;;;;6.20;5.32;;;23.40;82.80;;;;;;6270746;27;88242;-65
2023/05/19 09:14:49;;;;;;;6.75;5.55;;;23.40;82.80;;;;;;6263758;27;89533;-64
2023/05/19 09:17:51;;;;;;;7.32;6.30;;;23.40;82.80;;;;;;6263934;27;89044;-64
2023/05/19 09:20:59;;;;;;;6.30;5.57;;;23.40;82.80;;;;;;6267693;27;88936;-65
2023/05/19 09:24:07;;;;;;;7.15;5.72;;;23.40;82.80;;;;;;6268636;27;87841;-65
2023/05/19 09:27:09;;;;;;;6.35;5.20;;;23.40;83.00;;;;;;6264932;27;89585;-65
2023/05/19 09:30:11;;;;;;;6.07;5.20;;;23.40;83.00;;;;;;6266070;27;89111;-65
2023/05/19 09:33:19;;;;;;;6.45;5.65;;;23.40;83.10;;;;;;6265008;27;89101;-63
2023/05/19 09:36:21;;;;;;;7.22;5.38;;;23.40;83.10;;;;;;6267154;27;89417;-63
2023/05/19 09:39:27;;;;;;;7.20;5.50;;;23.40;83.70;;;;;;6272549;27;88032;-63
2023/05/19 09:42:29;;;;;;;5.78;5.03;;;23.40;83.90;;;;;;6280714;27;87562;-63
2023/05/19 09:45:31;;;;;;;5.47;4.75;;;23.50;84.10;;;;;;6277057;27;89404;-63
2023/05/19 09:48:36;;;;;;;6.55;4.95;;;23.50;84.10;;;;;;6284745;27;89176;-63
2023/05/19 09:51:40;;;;;;;6.03;5.43;;;23.50;84.20;;;;;;6264447;27;89093;-63
2023/05/19 09:54:45;;;;;;;5.68;5.18;;;23.50;83.90;;;;;;6263706;27;89391;-63
2023/05/19 09:57:47;;;;;;;5.78;5.18;;;23.50;83.80;;;;;;6264573;27;89072;-63
2023/05/19 10:00:50;;;;;;;5.38;4.82;;;23.50;83.80;;;;;;6260749;27;89072;-64
2023/05/19 10:03:53;;;;;;;5.00;4.45;;;23.50;83.80;;;;;;6256495;27;88973;-64
2023/05/19 10:06:58;;;;;;;5.80;5.20;;;23.50;83.80;;;;;;6273012;27;88992;-64
2023/05/19 10:10:02;;;;;;;5.88;5.05;;;23.50;83.80;;;;;;6272093;27;90672;-64
2023/05/19 10:13:04;;;;;;;6.32;5.00;;;23.50;84.40;;;;;;6266933;27;88543;-64
2023/05/19 10:16:08;;;;;;;6.88;5.15;;;23.50;84.50;;;;;;6271299;27;87866;-64
2023/05/19 10:19:12;;;;;;;9.25;5.18;;;23.50;83.90;;;;;;6274802;27;90639;-64
2023/05/19 10:22:14;;;;;;;7.47;5.10;;;23.50;84.10;;;;;;6286290;27;90125;-64
2023/05/19 10:25:18;;;;;;;5.43;4.60;;;23.60;84.80;;;;;;6270875;27;89483;-64
2023/05/19 10:28:25;;;;;;;6.75;4.72;;;23.60;85.00;;;;;;6269865;27;89027;-64
2023/05/19 10:31:27;;;;;;;6.82;4.95;;;23.50;84.90;;;;;;6282604;27;89546;-63
2023/05/19 10:34:59;;;;;;;6.65;4.75;;;23.50;85.40;;;;;;6272991;27;88227;-64
2023/05/19 10:38:11;;;;;;;5.45;4.65;;;23.50;84.80;;;;;;6263976;27;89069;-64
2023/05/19 10:41:27;;;;;;;8.23;5.03;;;23.60;84.30;;;;;;6277402;27;89117;-63
2023/05/19 10:44:45;;;;;;;7.65;5.05;;;23.50;84.20;;;;;;6265432;27;88458;-63
2023/05/19 10:47:47;;;;;;;5.75;5.10;;;23.50;84.20;;;;;;6273726;27;88973;-64
2023/05/19 10:50:53;;;;;;;7.10;5.22;;;23.50;84.20;;;;;;6255479;27;88983;-64
2023/05/19 10:53:57;;;;;;;8.07;5.30;;;23.50;84.50;;;;;;6265535;27;89544;-64
2023/05/19 10:57:00;;;;;;;7.05;4.95;;;23.50;84.70;;;;;;6271122;27;90324;-63
2023/05/19 11:00:10;;;;;;;5.53;4.60;;;23.50;84.90;;;;;;6274703;27;89117;-63
2023/05/19 11:03:16;;;;;;;6.78;4.95;;;23.50;85.00;;;;;;6275015;27;88054;-64
2023/05/19 11:06:26;;;;;;;8.48;5.05;;;23.50;85.00;;;;;;6272292;27;89418;-63
2023/05/19 11:09:32;;;;;;;6.68;4.90;;;23.50;85.00;;;;;;6270113;27;87913;-64
2023/05/19 11:12:42;;;;;;;9.02;5.18;;;23.50;85.00;;;;;;6254617;27;88735;-64
2023/05/19 11:15:45;;;;;;;8.70;5.10;;;23.50;84.90;;;;;;6271627;27;88380;-63
2023/05/19 11:18:51;;;;;;;5.40;4.55;;;23.50;84.90;;;;;;6266660;27;89095;-64
2023/05/19 11:21:54;;;;;;;6.43;4.90;;;23.50;84.90;;;;;;6278630;27;89484;-64
2023/05/19 11:24:56;;;;;;;7.72;5.20;;;23.40;84.80;;;;;;6275942;27;89983;-64
2023/05/19 11:28:00;;;;;;;7.97;5.03;;;23.50;84.90;;;;;;6264796;27;89073;-64
2023/05/19 11:31:02;;;;;;;7.95;5.10;;;23.40;84.80;;;;;;6271041;27;89093;-64
2023/05/19 11:34:06;;;;;;;7.88;5.18;;;23.40;84.80;;;;;;6255995;27;88971;-64
2023/05/19 11:37:08;;;;;;;6.78;4.93;;;23.50;84.90;;;;;;6270127;27;89031;-64
2023/05/19 11:40:13;;;;;;;6.90;4.88;;;23.50;84.90;;;;;;6269801;27;89014;-64
2023/05/19 11:43:16;;;;;;;6.68;4.88;;;23.40;84.80;;;;;;6277561;27;89172;-64
2023/05/19 11:46:18;;;;;;;7.50;4.90;;;23.50;84.90;;;;;;6279493;27;88306;-64
2023/05/19 11:49:20;;;;;;;6.57;4.68;;;23.40;84.80;;;;;;6261926;27;89047;-64
2023/05/19 11:52:23;;;;;;;5.82;4.57;;;23.40;84.70;;;;;;6258906;27;89070;-64
2023/05/19 11:55:25;;;;;;;6.43;5.10;;;23.40;84.80;;;;;;6261860;27;88927;-64
2023/05/19 11:58:29;;;;;;;5.22;4.70;;;23.40;84.70;;;;;;6274718;27;89205;-64
2023/05/19 12:01:31;;;;;;;6.18;4.70;;;23.40;84.70;;;;;;6259260;27;89325;-64
2023/05/19 12:04:33;;;;;;;9.43;4.70;;;23.50;84.80;;;;;;6287305;27;89240;-64
2023/05/19 12:07:38;;;;;;;8.43;4.75;;;23.40;84.70;;;;;;6248872;27;89261;-64
2023/05/19 12:10:40;;;;;;;6.85;4.40;;;23.40;84.70;;;;;;6265769;27;89156;-64
2023/05/19 12:13:44;;;;;;;5.18;4.50;;;23.40;84.60;;;;;;6266407;27;89038;-64
2023/05/19 12:16:46;;;;;;;5.38;4.40;;;23.40;84.50;;;;;;6275763;27;88348;-64
2023/05/19 12:19:49;;;;;;;5.25;4.47;;;23.50;84.60;;;;;;6280993;27;89097;-64
2023/05/19 12:22:52;;;;;;;5.32;4.30;;;23.40;84.50;;;;;;6281641;27;89120;-64
2023/05/19 12:25:54;;;;;;;6.90;4.55;;;23.50;84.50;;;;;;6262281;27;89922;-64
2023/05/19 12:28:58;;;;;;;7.78;4.60;;;23.50;84.50;;;;;;6274865;27;89184;-63
2023/05/19 12:32:01;;;;;;;9.90;5.18;;;23.40;84.50;;;;;;6277720;27;89033;-63
2023/05/19 12:35:05;;;;;;;6.13;4.93;;;23.40;84.50;;;;;;6278259;27;89069;-64
2023/05/19 12:38:07;;;;;;;5.43;4.25;;;23.40;84.50;;;;;;6270711;27;89012;-64
2023/05/19 12:41:11;;;;;;;4.93;4.20;;;23.40;84.40;;;;;;6296949;27;87977;-63
2023/05/19 12:44:16;;;;;;;5.38;4.28;;;23.40;84.40;;;;;;6293444;27;89056;-63
2023/05/19 12:47:21;;;;;;;5.30;4.20;;;23.40;84.40;;;;;;6276502;27;88014;-64
2023/05/19 12:50:29;;;;;;;5.43;4.40;;;23.40;84.40;;;;;;6273204;27;88035;-63
2023/05/19 12:53:33;;;;;;;6.30;4.25;;;23.40;84.60;;;;;;6262498;27;89078;-63
2023/05/19 12:56:35;;;;;;;6.88;4.60;;;23.40;84.50;;;;;;6275096;27;90017;-63
2023/05/19 12:59:38;;;;;;;5.25;4.35;;;23.40;84.60;;;;;;6279302;27;89671;-63
2023/05/19 13:02:56;;;;;;;7.18;4.07;;;23.40;84.50;;;;;;6285967;27;87943;-63
2023/05/19 13:05:59;;;;;;;9.25;4.55;;;23.40;84.50;;;;;;6268721;27;89067;-64
2023/05/19 13:09:01;;;;;;;5.18;4.10;;;23.40;84.50;;;;;;6274654;27;89040;-63
2023/05/19 13:12:03;;;;;;;8.80;4.10;;;23.40;84.50;;;;;;6272093;27;89096;-63
2023/05/19 13:15:08;;;;;;;5.22;4.22;;;23.40;84.40;;;;;;6270681;27;89136;-63
2023/05/19 13:18:11;;;;;;;5.00;4.25;;;23.40;84.40;;;;;;6268259;27;88697;-63
2023/05/19 13:21:13;;;;;;;5.80;4.30;;;23.40;84.30;;;;;;6270078;27;89146;-63
2023/05/19 13:24:15;;;;;;;6.03;4.35;;;23.40;84.30;;;;;;6271341;27;89284;-63
2023/05/19 13:27:17;;;;;;;4.18;3.72;;;23.40;84.40;;;;;;6291099;27;89685;-63
2023/05/19 13:30:22;;;;;;;4.75;3.90;;;23.40;84.40;;;;;;6276342;27;87975;-63
2023/05/19 13:33:24;;;;;;;5.40;4.10;;;23.40;84.40;;;;;;6268518;27;89060;-63
2023/05/19 13:36:26;;;;;;;4.93;3.92;;;23.40;84.40;;;;;;6257065;27;89068;-63
2023/05/19 13:39:28;;;;;;;7.18;4.10;;;23.40;84.50;;;;;;6280340;27;89041;-64
2023/05/19 13:42:32;;;;;;;4.75;4.22;;;23.40;84.50;;;;;;6262746;27;89107;-63
2023/05/19 13:45:36;;;;;;;5.18;3.97;;;23.40;84.50;;;;;;6270525;27;88972;-63
2023/05/19 13:48:38;;;;;;;4.65;3.72;;;23.40;84.50;;;;;;6276833;27;88310;-64
2023/05/19 13:51:42;;;;;;;4.03;3.60;;;23.40;84.50;;;;;;6265649;27;89183;-63
2023/05/19 13:54:44;;;;;;;4.15;3.75;;;23.30;84.50;;;;;;6264622;27;88524;-63
2023/05/19 13:57:46;;;;;;;4.82;3.80;;;23.40;84.60;;;;;;6258451;27;89977;-63
2023/05/19 14:00:53;;;;;;;6.15;4.20;;;23.40;84.60;;;;;;6271279;27;89059;-63
2023/05/19 14:03:55;;;;;;;5.80;3.83;;;23.40;84.60;;;;;;6274915;27;89083;-64
2023/05/19 14:06:57;;;;;;;4.50;3.53;;;23.40;84.70;;;;;;6261144;27;89204;-64
2023/05/19 14:09:59;;;;;;;5.35;3.83;;;23.40;84.70;;;;;;6262091;27;89103;-64
2023/05/19 14:13:01;;;;;;;5.20;4.00;;;23.30;84.70;;;;;;6276075;27;89025;-63
2023/05/19 14:16:05;;;;;;;5.65;4.03;;;23.30;84.80;;;;;;6267568;27;89268;-63
2023/05/19 14:19:07;;;;;;;6.07;3.97;;;23.30;84.70;;;;;;6271883;27;88375;-64
2023/05/19 14:22:09;;;;;;;4.18;3.75;;;23.40;84.70;;;;;;6271098;27;89119;-63
2023/05/19 14:25:11;;;;;;;4.68;3.50;;;23.30;84.70;;;;;;6256192;27;89189;-63
2023/05/19 14:28:13;;;;;;;5.25;3.67;;;23.40;84.70;;;;;;6261719;27;90094;-64
2023/05/19 14:31:16;;;;;;;7.20;3.63;;;23.30;84.50;;;;;;6257688;27;89329;-64
2023/05/19 14:34:19;;;;;;;5.47;3.70;;;23.40;84.40;;;;;;6276148;27;89127;-64
2023/05/19 14:37:21;;;;;;;5.10;3.85;;;23.40;84.70;;;;;;6271086;27;89074;-64
2023/05/19 14:40:23;;;;;;;5.95;4.10;;;23.40;84.70;;;;;;6267241;27;89079;-64
2023/05/19 14:43:25;;;;;;;5.82;4.03;;;23.40;84.70;;;;;;6257095;27;89071;-64
2023/05/19 14:46:29;;;;;;;7.65;3.53;;;23.40;84.80;;;;;;6277950;27;89389;-64
2023/05/19 14:49:31;;;;;;;6.13;3.72;;;23.40;84.70;;;;;;6251752;27;89134;-64
2023/05/19 14:52:33;;;;;;;5.47;3.60;;;23.30;85.50;;;;;;6275117;27;89113;-64
2023/05/19 14:55:35;;;;;;;5.25;3.78;;;23.40;84.70;;;;;;6274528;27;89478;-64
2023/05/19 14:58:37;;;;;;;5.38;3.63;;;23.40;84.60;;;;;;6279639;27;90028;-64
2023/05/19 15:01:40;;;;;;;4.32;3.70;;;23.40;84.60;;;;;;6263238;27;89235;-64
2023/05/19 15:04:42;;;;;;;4.20;3.72;;;23.30;84.50;;;;;;6264356;27;87996;-64
2023/05/19 15:07:44;;;;;;;5.95;3.72;;;23.30;84.60;;;;;;6271336;27;89060;-64
2023/05/19 15:10:48;;;;;;;7.25;3.55;;;23.40;84.50;;;;;;6266926;27;89120;-64
2023/05/19 15:13:50;;;;;;;4.85;3.47;;;23.40;84.50;;;;;;6270909;27;88997;-63
2023/05/19 15:16:54;;;;;;;4.22;3.22;;;23.30;84.60;;;;;;6270759;27;88006;-64
2023/05/19 15:19:55;;;;;;;5.35;3.63;;;23.30;84.60;;;;;;6287952;27;88414;-64
2023/05/19 15:22:57;;;;;;;5.25;3.40;;;23.40;84.60;;;;;;6281595;27;88542;-64
2023/05/19 15:26:00;;;;;;;4.53;3.70;;;23.40;84.60;;;;;;6278985;27;89084;-64
2023/05/19 15:29:02;;;;;;;3.75;3.33;;;23.40;84.50;;;;;;6295902;27;90297;-63
2023/05/19 15:32:06;;;;;;;4.75;3.47;;;23.30;84.50;;;;;;6293167;27;89193;-64
2023/05/19 15:35:08;;;;;;;7.68;4.15;;;23.30;84.40;;;;;;6273283;27;89138;-64
2023/05/19 15:38:11;;;;;;;5.32;3.60;;;23.30;84.50;;;;;;6257531;27;89443;-63
2023/05/19 15:41:13;;;;;;;4.43;3.50;;;23.30;84.50;;;;;;6257810;27;89088;-64
2023/05/19 15:44:14;;;;;;;3.40;3.10;;;23.30;84.50;;;;;;6280405;27;89267;-64
2023/05/19 15:47:18;;;;;;;4.60;3.65;;;23.30;84.50;;;;;;6264919;27;89150;-64
2023/05/19 15:50:20;;;;;;;3.75;3.20;;;23.30;84.50;;;;;;6265867;27;88336;-64